Silver Gate, Montana
Current Conditions -  °F | °C
As of 11:53 PM on Saturday 25 Oct 2014 (Local Time) from KLVM Reporting Station
Clear Clear  
Wind Chill: 66°   Ceiling: Unl
Heat Index: 66°   Visibility: 10mi
Dew Point: 29°   Wind: 20mph
Humidity: 25%   Direction: 220°SW
Pressure: 29.67"   Gusts: 29mph
Location:  45.01°N, 109.99°W
Report Text: KLVM 260553Z AUTO 22017G25KT 10SM CLR 19/M02 A2967 RMK AO2 LTG DSNT S SLP015 T01891017 10222 20150 58016
Loading
Personal Weather Stations






























Interactive Weather Map
Tropical Storm Tracking
New forecast layout! Learn more

10-Day Weather Forecast

Advertisements
Track Severe Weather on mobile